METAR AND TAF INFORMATION
METAR FOR LFSB
ADDS - METARS form results

(0741 UTC 16 January 2019)
Data provider http://aviationweather.gov/metar/data/
 
METAR text: LFSB 160730Z 17008KT CAVOK M01/M02 Q1017 NOSIG
Conditions at: LFSB (BALE/MULHOUSE , FR) observed 0730 UTC 16 January 2019
Temperature: -1.0°C (30°F)
Dewpoint: -2.0°C (28°F) [RH = 93%]
Pressure (altimeter): 30.03 inches Hg (1017.0 mb)
Winds: from the S (170 degrees) at 9 MPH (8 knots; 4.1 m/s)
Visibility: 6 or more miles (10+ km)
Ceiling: ceiling and visibility are OK
Clouds: unknown
Weather: no significant weather observed at this time

METAR text: LFSB 160700Z 18008KT CAVOK M01/M02 Q1017 NOSIG
Conditions at: LFSB (BALE/MULHOUSE , FR) observed 0700 UTC 16 January 2019
Temperature: -1.0°C (30°F)
Dewpoint: -2.0°C (28°F) [RH = 93%]
Pressure (altimeter): 30.03 inches Hg (1017.0 mb)
Winds: from the S (180 degrees) at 9 MPH (8 knots; 4.1 m/s)
Visibility: 6 or more miles (10+ km)
Ceiling: ceiling and visibility are OK
Clouds: unknown
Weather: no significant weather observed at this time

Forecast for: LFSB (BALE/MULHOUSE , FR)
Text: TAF LFSB 160500Z 1606/1706 17004KT CAVOK
Forecast period: 0600 UTC 16 January 2019 to 0600 UTC 17 January 2019
Forecast type: FROM: standard forecast or significant change
Winds: from the S (170 degrees) at 5 MPH (4 knots; 2.1 m/s)
Visibility: 6 or more miles 10+ km)
Ceiling: unknown
Clouds: missing
Weather: NSW  (no significant weather)

 AIRPORT MAP

 RUNWAY INFORMATION
Runway 08 Runway length 5969 ft Runway width 197 ft
Runway elevation 881 ft Runway displaced threshold 0 ft Runway heading 77
Runway 26 Runway length 5969 ft Runway width 197 ft
Runway elevation 884 ft Runway displaced threshold 722 ft Runway heading 257
Runway 15 Runway length 12795 ft Runway width 197 ft
Runway elevation 865 ft Runway displaced threshold 0 ft Runway heading 155
Runway 33 Runway length 12795 ft Runway width 197 ft
Runway elevation 882 ft Runway displaced threshold 0 ft Runway heading 335

 AIRPORT FREQUENCIES
Type A/D Name APP Frequency 118.575 MHZ
Type ATIS Name ATIS Frequency 127.875 MHZ
Type GND Name GND Frequency 121.6 MHZ
Type INFO Name INFO Frequency 121.25 MHZ
Type PFLT Name PREFLIGHT Frequency 120.5 MHZ
Type TWR Name TWR Frequency 118.3 MHZ

 AIRPORT NEAR NAVIGATION AIDS
Type VOR-DME Name Bale Mulhouse Frequency 117450 KHZ
Type NDB Name Bale Mulhouse Frequency 353 KHZ